CPX318 Details

Departure: Phoenix Sky Harbor International Airport (KPHX)
Arrival: Portland International Airport (KPDX) at N/A
Route: ZEPER1 SISIE DOVEE BTY KO48I SOERN TMBRS2
Notes:


Current Weather Information
KPHX 251051Z 28013KT 10SM CLR 30/21 A2992 RMK AO2 SLP111 T03000211
KPDX 251053Z 33003KT 10SM FEW050 17/12 A3009 RMK AO2 SLP188 T01670122 $